sensor_id;sensor_type;location;lat;lon;timestamp;pressure;altitude;pressure_sealevel;temperature;humidity
11329;BME280;5719;42.714;23.732;2022-07-23T00:00:15;94749.03;;;17.74;83.17
11329;BME280;5719;42.714;23.732;2022-07-23T00:02:42;94746.72;;;17.71;82.48
11329;BME280;5719;42.714;23.732;2022-07-23T00:05:09;94748.97;;;17.66;83.37
11329;BME280;5719;42.714;23.732;2022-07-23T00:07:37;94743.94;;;17.45;85.21
11329;BME280;5719;42.714;23.732;2022-07-23T00:10:06;94745.09;;;17.33;86.56
11329;BME280;5719;42.714;23.732;2022-07-23T00:12:34;94744.88;;;17.27;87.12
11329;BME280;5719;42.714;23.732;2022-07-23T00:15:03;94744.88;;;17.17;87.79
11329;BME280;5719;42.714;23.732;2022-07-23T00:17:30;94752.88;;;17.15;88.06
11329;BME280;5719;42.714;23.732;2022-07-23T00:19:58;94747.50;;;17.17;87.66
11329;BME280;5719;42.714;23.732;2022-07-23T00:22:25;94745.72;;;17.17;88.04
11329;BME280;5719;42.714;23.732;2022-07-23T00:24:53;94746.25;;;17.21;88.11
11329;BME280;5719;42.714;23.732;2022-07-23T00:27:21;94740.59;;;17.26;87.31
11329;BME280;5719;42.714;23.732;2022-07-23T00:29:48;94745.22;;;17.32;86.24
11329;BME280;5719;42.714;23.732;2022-07-23T00:32:15;94729.31;;;17.25;85.83
11329;BME280;5719;42.714;23.732;2022-07-23T00:34:42;94739.28;;;17.39;85.56
11329;BME280;5719;42.714;23.732;2022-07-23T00:37:09;94742.63;;;17.32;85.69
11329;BME280;5719;42.714;23.732;2022-07-23T00:39:35;94746.06;;;17.32;85.22
11329;BME280;5719;42.714;23.732;2022-07-23T00:42:03;94741.66;;;17.33;85.32
11329;BME280;5719;42.714;23.732;2022-07-23T00:44:31;94739.53;;;17.19;86.32
11329;BME280;5719;42.714;23.732;2022-07-23T00:46:58;94728.66;;;17.13;86.70
11329;BME280;5719;42.714;23.732;2022-07-23T00:49:26;94732.28;;;17.03;87.87
11329;BME280;5719;42.714;23.732;2022-07-23T00:51:54;94732.56;;;17.00;88.54
11329;BME280;5719;42.714;23.732;2022-07-23T00:54:22;94730.91;;;16.99;87.86
11329;BME280;5719;42.714;23.732;2022-07-23T00:56:50;94730.09;;;16.98;87.96
11329;BME280;5719;42.714;23.732;2022-07-23T00:59:17;94727.94;;;16.94;88.17
11329;BME280;5719;42.714;23.732;2022-07-23T01:01:45;94726.66;;;16.98;87.68
11329;BME280;5719;42.714;23.732;2022-07-23T01:04:14;94726.28;;;16.93;88.03
11329;BME280;5719;42.714;23.732;2022-07-23T01:06:43;94730.66;;;16.92;88.17
11329;BME280;5719;42.714;23.732;2022-07-23T01:09:10;94732.88;;;16.87;88.42
11329;BME280;5719;42.714;23.732;2022-07-23T01:11:37;94727.41;;;16.81;89.11
11329;BME280;5719;42.714;23.732;2022-07-23T01:14:11;94727.69;;;16.78;89.51
11329;BME280;5719;42.714;23.732;2022-07-23T01:16:38;94731.13;;;16.68;89.87
11329;BME280;5719;42.714;23.732;2022-07-23T01:19:07;94725.53;;;16.63;89.88
11329;BME280;5719;42.714;23.732;2022-07-23T01:21:39;94728.97;;;16.64;90.90
11329;BME280;5719;42.714;23.732;2022-07-23T01:24:09;94721.66;;;16.58;90.55
11329;BME280;5719;42.714;23.732;2022-07-23T01:26:36;94724.16;;;16.50;90.89
11329;BME280;5719;42.714;23.732;2022-07-23T01:29:04;94718.66;;;16.43;91.03
11329;BME280;5719;42.714;23.732;2022-07-23T01:31:31;94720.88;;;16.38;92.39
11329;BME280;5719;42.714;23.732;2022-07-23T01:33:59;94720.03;;;16.38;92.38
11329;BME280;5719;42.714;23.732;2022-07-23T01:36:25;94715.50;;;16.40;91.11
11329;BME280;5719;42.714;23.732;2022-07-23T01:38:53;94714.13;;;16.36;89.84
11329;BME280;5719;42.714;23.732;2022-07-23T01:41:21;94719.63;;;16.23;91.46
11329;BME280;5719;42.714;23.732;2022-07-23T01:43:48;94719.63;;;16.23;92.09
11329;BME280;5719;42.714;23.732;2022-07-23T01:46:15;94719.50;;;16.25;92.31
11329;BME280;5719;42.714;23.732;2022-07-23T01:48:42;94724.84;;;16.23;90.90
11329;BME280;5719;42.714;23.732;2022-07-23T01:51:09;94721.28;;;16.24;91.46
11329;BME280;5719;42.714;23.732;2022-07-23T01:53:36;94721.97;;;16.26;91.80
11329;BME280;5719;42.714;23.732;2022-07-23T01:56:03;94719.75;;;16.22;91.77
11329;BME280;5719;42.714;23.732;2022-07-23T01:58:31;94722.38;;;16.12;90.48
11329;BME280;5719;42.714;23.732;2022-07-23T02:00:58;94720.59;;;16.12;91.74
11329;BME280;5719;42.714;23.732;2022-07-23T02:03:26;94726.66;;;16.13;91.22
11329;BME280;5719;42.714;23.732;2022-07-23T02:05:53;94721.44;;;16.13;90.91
11329;BME280;5719;42.714;23.732;2022-07-23T02:08:20;94720.31;;;16.15;90.51
11329;BME280;5719;42.714;23.732;2022-07-23T02:10:47;94722.66;;;16.18;90.00
11329;BME280;5719;42.714;23.732;2022-07-23T02:13:14;94721.72;;;16.10;90.55
11329;BME280;5719;42.714;23.732;2022-07-23T02:15:42;94726.22;;;16.08;90.26
11329;BME280;5719;42.714;23.732;2022-07-23T02:18:09;94723.06;;;16.04;90.55
11329;BME280;5719;42.714;23.732;2022-07-23T02:20:36;94727.72;;;16.01;90.39
11329;BME280;5719;42.714;23.732;2022-07-23T02:23:04;94728.13;;;15.96;91.08
11329;BME280;5719;42.714;23.732;2022-07-23T02:25:32;94721.69;;;15.91;90.36
11329;BME280;5719;42.714;23.732;2022-07-23T02:27:58;94724.44;;;15.80;91.17
11329;BME280;5719;42.714;23.732;2022-07-23T02:30:25;94723.06;;;15.76;91.92
11329;BME280;5719;42.714;23.732;2022-07-23T02:32:54;94727.84;;;15.70;92.31
11329;BME280;5719;42.714;23.732;2022-07-23T02:35:20;94726.47;;;15.76;91.64
11329;BME280;5719;42.714;23.732;2022-07-23T02:37:47;94726.47;;;15.76;91.57
11329;BME280;5719;42.714;23.732;2022-07-23T02:40:14;94731.00;;;15.74;90.95
11329;BME280;5719;42.714;23.732;2022-07-23T02:42:41;94733.47;;;15.76;91.00
11329;BME280;5719;42.714;23.732;2022-07-23T02:45:09;94732.09;;;15.72;90.78
11329;BME280;5719;42.714;23.732;2022-07-23T02:47:35;94737.59;;;15.68;91.28
11329;BME280;5719;42.714;23.732;2022-07-23T02:50:05;94739.91;;;15.72;90.82
11329;BME280;5719;42.714;23.732;2022-07-23T02:52:32;94739.34;;;15.68;90.88
11329;BME280;5719;42.714;23.732;2022-07-23T02:54:59;94739.25;;;15.69;90.94
11329;BME280;5719;42.714;23.732;2022-07-23T02:57:26;94746.91;;;15.61;91.44
11329;BME280;5719;42.714;23.732;2022-07-23T02:59:53;94744.84;;;15.55;90.78
11329;BME280;5719;42.714;23.732;2022-07-23T03:02:20;94744.41;;;15.50;91.56
11329;BME280;5719;42.714;23.732;2022-07-23T03:04:47;94751.75;;;15.45;92.39
11329;BME280;5719;42.714;23.732;2022-07-23T03:07:16;94754.22;;;15.37;92.65
11329;BME280;5719;42.714;23.732;2022-07-23T03:09:43;94753.13;;;15.40;93.02
11329;BME280;5719;42.714;23.732;2022-07-23T03:12:09;94760.72;;;15.22;95.12
11329;BME280;5719;42.714;23.732;2022-07-23T03:14:36;94760.84;;;15.20;95.17
11329;BME280;5719;42.714;23.732;2022-07-23T03:17:03;94765.94;;;15.22;94.85
11329;BME280;5719;42.714;23.732;2022-07-23T03:19:30;94765.94;;;15.22;93.26
11329;BME280;5719;42.714;23.732;2022-07-23T03:21:57;94760.03;;;15.20;94.20
11329;BME280;5719;42.714;23.732;2022-07-23T03:24:25;94769.78;;;15.28;94.27
11329;BME280;5719;42.714;23.732;2022-07-23T03:27:14;94766.34;;;15.27;94.16
11329;BME280;5719;42.714;23.732;2022-07-23T03:29:40;94765.69;;;15.25;93.32
11329;BME280;5719;42.714;23.732;2022-07-23T03:32:07;94760.59;;;15.23;92.52
11329;BME280;5719;42.714;23.732;2022-07-23T03:34:35;94757.97;;;15.23;91.05
11329;BME280;5719;42.714;23.732;2022-07-23T03:37:02;94762.63;;;15.20;90.81
11329;BME280;5719;42.714;23.732;2022-07-23T03:39:30;94771.91;;;15.13;91.32
11329;BME280;5719;42.714;23.732;2022-07-23T03:41:57;94776.00;;;15.06;92.07
11329;BME280;5719;42.714;23.732;2022-07-23T03:44:24;94768.91;;;15.08;92.19
11329;BME280;5719;42.714;23.732;2022-07-23T03:46:51;94767.25;;;15.07;92.73
11329;BME280;5719;42.714;23.732;2022-07-23T03:49:18;94763.69;;;15.08;92.79
11329;BME280;5719;42.714;23.732;2022-07-23T03:51:45;94763.53;;;15.09;92.94
11329;BME280;5719;42.714;23.732;2022-07-23T03:54:12;94762.59;;;15.10;93.10
11329;BME280;5719;42.714;23.732;2022-07-23T03:56:42;94770.78;;;15.06;94.73
11329;BME280;5719;42.714;23.732;2022-07-23T03:59:10;94764.19;;;15.02;95.46
11329;BME280;5719;42.714;23.732;2022-07-23T04:01:37;94763.81;;;15.06;95.89
11329;BME280;5719;42.714;23.732;2022-07-23T04:04:04;94768.38;;;15.14;95.66
11329;BME280;5719;42.714;23.732;2022-07-23T04:06:31;94765.22;;;15.20;95.75
11329;BME280;5719;42.714;23.732;2022-07-23T04:08:58;94764.72;;;15.26;96.25
11329;BME280;5719;42.714;23.732;2022-07-23T04:11:25;94768.69;;;15.30;95.91
11329;BME280;5719;42.714;23.732;2022-07-23T04:13:53;94775.63;;;15.41;95.77
11329;BME280;5719;42.714;23.732;2022-07-23T04:16:20;94772.59;;;15.45;95.79
11329;BME280;5719;42.714;23.732;2022-07-23T04:18:47;94765.69;;;15.55;95.31
11329;BME280;5719;42.714;23.732;2022-07-23T04:21:14;94772.41;;;15.58;96.64
11329;BME280;5719;42.714;23.732;2022-07-23T04:23:40;94769.69;;;15.69;96.44
11329;BME280;5719;42.714;23.732;2022-07-23T04:26:07;94770.53;;;15.79;96.53
11329;BME280;5719;42.714;23.732;2022-07-23T04:28:35;94768.34;;;15.94;96.77
11329;BME280;5719;42.714;23.732;2022-07-23T04:31:03;94766.56;;;16.04;96.68
11329;BME280;5719;42.714;23.732;2022-07-23T04:33:30;94772.09;;;16.20;96.29
11329;BME280;5719;42.714;23.732;2022-07-23T04:35:57;94767.03;;;16.28;96.29
11329;BME280;5719;42.714;23.732;2022-07-23T04:38:24;94774.72;;;16.39;96.11
11329;BME280;5719;42.714;23.732;2022-07-23T04:40:51;94778.81;;;16.51;96.58
11329;BME280;5719;42.714;23.732;2022-07-23T04:43:18;94775.50;;;16.68;95.58
11329;BME280;5719;42.714;23.732;2022-07-23T04:45:46;94779.34;;;16.84;94.83
11329;BME280;5719;42.714;23.732;2022-07-23T04:48:14;94778.88;;;16.98;94.31
11329;BME280;5719;42.714;23.732;2022-07-23T04:50:41;94779.56;;;17.09;94.82
11329;BME280;5719;42.714;23.732;2022-07-23T04:53:09;94783.34;;;17.25;94.31
11329;BME280;5719;42.714;23.732;2022-07-23T04:55:36;94774.69;;;17.34;93.70
11329;BME280;5719;42.714;23.732;2022-07-23T04:58:03;94779.44;;;17.48;93.63
11329;BME280;5719;42.714;23.732;2022-07-23T05:00:29;94775.78;;;17.68;92.74
11329;BME280;5719;42.714;23.732;2022-07-23T05:02:56;94777.66;;;17.76;92.42
11329;BME280;5719;42.714;23.732;2022-07-23T05:05:25;94769.19;;;17.91;92.14
11329;BME280;5719;42.714;23.732;2022-07-23T05:07:52;94776.13;;;18.00;92.54
11329;BME280;5719;42.714;23.732;2022-07-23T05:10:19;94779.75;;;18.17;91.77
11329;BME280;5719;42.714;23.732;2022-07-23T05:12:46;94776.16;;;18.36;90.89
11329;BME280;5719;42.714;23.732;2022-07-23T05:15:12;94770.78;;;18.55;90.35
11329;BME280;5719;42.714;23.732;2022-07-23T05:17:39;94779.75;;;18.70;90.79
11329;BME280;5719;42.714;23.732;2022-07-23T05:20:07;94779.41;;;18.91;90.67
11329;BME280;5719;42.714;23.732;2022-07-23T05:22:35;94775.94;;;19.08;90.67
11329;BME280;5719;42.714;23.732;2022-07-23T05:25:03;94774.91;;;19.27;90.66
11329;BME280;5719;42.714;23.732;2022-07-23T05:27:30;94784.72;;;19.50;89.44
11329;BME280;5719;42.714;23.732;2022-07-23T05:29:57;94794.00;;;19.71;87.66
11329;BME280;5719;42.714;23.732;2022-07-23T05:32:25;94787.84;;;19.88;85.86
11329;BME280;5719;42.714;23.732;2022-07-23T05:34:52;94792.81;;;20.07;84.63
11329;BME280;5719;42.714;23.732;2022-07-23T05:37:19;94796.94;;;20.26;83.41
11329;BME280;5719;42.714;23.732;2022-07-23T05:39:47;94799.50;;;20.43;84.34
11329;BME280;5719;42.714;23.732;2022-07-23T05:42:14;94796.22;;;20.66;82.72
11329;BME280;5719;42.714;23.732;2022-07-23T05:44:41;94796.09;;;20.83;81.71
11329;BME280;5719;42.714;23.732;2022-07-23T05:47:08;94803.94;;;21.08;80.11
11329;BME280;5719;42.714;23.732;2022-07-23T05:49:36;94790.78;;;21.32;78.05
11329;BME280;5719;42.714;23.732;2022-07-23T05:52:04;94797.47;;;21.50;75.74
11329;BME280;5719;42.714;23.732;2022-07-23T05:54:34;94805.00;;;21.70;73.89
11329;BME280;5719;42.714;23.732;2022-07-23T05:57:02;94803.47;;;21.91;72.67
11329;BME280;5719;42.714;23.732;2022-07-23T05:59:29;94811.44;;;22.14;71.11
11329;BME280;5719;42.714;23.732;2022-07-23T06:01:56;94796.47;;;22.37;70.36
11329;BME280;5719;42.714;23.732;2022-07-23T06:04:23;94797.63;;;22.66;68.13
11329;BME280;5719;42.714;23.732;2022-07-23T06:06:50;94799.09;;;22.91;66.05
11329;BME280;5719;42.714;23.732;2022-07-23T06:09:17;94804.16;;;23.15;64.90
11329;BME280;5719;42.714;23.732;2022-07-23T06:11:44;94801.66;;;23.36;62.95
11329;BME280;5719;42.714;23.732;2022-07-23T06:14:12;94801.28;;;23.39;62.41
11329;BME280;5719;42.714;23.732;2022-07-23T06:16:39;94802.16;;;23.55;64.11
11329;BME280;5719;42.714;23.732;2022-07-23T06:19:06;94799.72;;;23.68;61.71
11329;BME280;5719;42.714;23.732;2022-07-23T06:21:33;94798.53;;;23.85;59.93
11329;BME280;5719;42.714;23.732;2022-07-23T06:24:00;94794.31;;;24.05;58.39
11329;BME280;5719;42.714;23.732;2022-07-23T06:26:27;94797.22;;;24.25;57.35
11329;BME280;5719;42.714;23.732;2022-07-23T06:28:54;94791.19;;;24.31;55.52
11329;BME280;5719;42.714;23.732;2022-07-23T06:31:22;94799.56;;;24.34;54.09
11329;BME280;5719;42.714;23.732;2022-07-23T06:33:49;94795.72;;;24.52;55.01
11329;BME280;5719;42.714;23.732;2022-07-23T06:36:16;94795.94;;;24.57;55.03
11329;BME280;5719;42.714;23.732;2022-07-23T06:38:43;94798.03;;;24.82;55.57
11329;BME280;5719;42.714;23.732;2022-07-23T06:41:10;94793.72;;;24.96;53.31
11329;BME280;5719;42.714;23.732;2022-07-23T06:43:37;94794.06;;;25.14;53.42
11329;BME280;5719;42.714;23.732;2022-07-23T06:46:04;94793.97;;;25.29;51.16
11329;BME280;5719;42.714;23.732;2022-07-23T06:48:32;94785.97;;;25.50;52.07
11329;BME280;5719;42.714;23.732;2022-07-23T06:51:01;94791.19;;;25.65;50.99
11329;BME280;5719;42.714;23.732;2022-07-23T06:53:28;94787.22;;;25.75;52.00
11329;BME280;5719;42.714;23.732;2022-07-23T06:55:55;94796.91;;;25.96;51.12
11329;BME280;5719;42.714;23.732;2022-07-23T06:58:22;94792.06;;;26.06;49.19
11329;BME280;5719;42.714;23.732;2022-07-23T07:00:49;94792.75;;;26.21;49.63
11329;BME280;5719;42.714;23.732;2022-07-23T07:03:18;94794.44;;;26.36;47.95
11329;BME280;5719;42.714;23.732;2022-07-23T07:05:47;94787.13;;;26.44;48.44
11329;BME280;5719;42.714;23.732;2022-07-23T07:08:15;94783.66;;;26.44;47.22
11329;BME280;5719;42.714;23.732;2022-07-23T07:10:42;94791.22;;;26.53;47.57
11329;BME280;5719;42.714;23.732;2022-07-23T07:13:09;94789.81;;;26.64;47.96
11329;BME280;5719;42.714;23.732;2022-07-23T07:15:36;94788.63;;;26.66;49.16
11329;BME280;5719;42.714;23.732;2022-07-23T07:18:04;94780.31;;;26.83;48.57
11329;BME280;5719;42.714;23.732;2022-07-23T07:20:31;94775.81;;;26.90;48.41
11329;BME280;5719;42.714;23.732;2022-07-23T07:23:02;94780.34;;;27.15;47.52
11329;BME280;5719;42.714;23.732;2022-07-23T07:25:29;94779.91;;;27.18;46.34
11329;BME280;5719;42.714;23.732;2022-07-23T07:27:56;94774.00;;;27.43;46.35
11329;BME280;5719;42.714;23.732;2022-07-23T07:30:23;94777.47;;;27.63;46.40
11329;BME280;5719;42.714;23.732;2022-07-23T07:32:50;94777.44;;;27.76;46.53
11329;BME280;5719;42.714;23.732;2022-07-23T07:35:17;94772.69;;;27.91;44.45
11329;BME280;5719;42.714;23.732;2022-07-23T07:37:44;94774.06;;;28.13;44.80
11329;BME280;5719;42.714;23.732;2022-07-23T07:40:12;94766.69;;;28.22;44.91
11329;BME280;5719;42.714;23.732;2022-07-23T07:42:45;94771.47;;;28.51;45.22
11329;BME280;5719;42.714;23.732;2022-07-23T07:45:12;94772.63;;;28.62;43.89
11329;BME280;5719;42.714;23.732;2022-07-23T07:47:39;94764.78;;;28.80;44.09
11329;BME280;5719;42.714;23.732;2022-07-23T07:50:07;94768.81;;;28.51;44.35
11329;BME280;5719;42.714;23.732;2022-07-23T07:52:34;94768.34;;;28.61;43.82
11329;BME280;5719;42.714;23.732;2022-07-23T07:55:04;94767.56;;;28.92;43.35
11329;BME280;5719;42.714;23.732;2022-07-23T07:57:33;94763.97;;;29.04;42.64
11329;BME280;5719;42.714;23.732;2022-07-23T07:59:59;94764.81;;;29.30;42.07
11329;BME280;5719;42.714;23.732;2022-07-23T08:02:27;94748.41;;;29.57;41.75
11329;BME280;5719;42.714;23.732;2022-07-23T08:04:54;94756.13;;;29.84;41.55
11329;BME280;5719;42.714;23.732;2022-07-23T08:07:22;94765.03;;;29.96;40.47
11329;BME280;5719;42.714;23.732;2022-07-23T08:09:49;94749.09;;;30.26;40.60
11329;BME280;5719;42.714;23.732;2022-07-23T08:12:16;94747.97;;;30.51;40.03
11329;BME280;5719;42.714;23.732;2022-07-23T08:14:45;94747.44;;;30.43;39.91
11329;BME280;5719;42.714;23.732;2022-07-23T08:17:11;94744.78;;;30.43;39.64
11329;BME280;5719;42.714;23.732;2022-07-23T08:19:38;94737.44;;;30.38;39.00
11329;BME280;5719;42.714;23.732;2022-07-23T08:22:05;94742.53;;;30.58;39.82
11329;BME280;5719;42.714;23.732;2022-07-23T08:24:32;94731.28;;;30.67;39.32
11329;BME280;5719;42.714;23.732;2022-07-23T08:26:59;94736.72;;;30.61;38.90
11329;BME280;5719;42.714;23.732;2022-07-23T08:29:26;94738.81;;;30.59;39.19
11329;BME280;5719;42.714;23.732;2022-07-23T08:31:55;94738.47;;;30.55;38.78
11329;BME280;5719;42.714;23.732;2022-07-23T08:34:22;94744.53;;;30.62;39.27
11329;BME280;5719;42.714;23.732;2022-07-23T08:36:49;94738.09;;;30.93;39.19
11329;BME280;5719;42.714;23.732;2022-07-23T08:39:16;94740.75;;;31.35;38.20
11329;BME280;5719;42.714;23.732;2022-07-23T08:41:43;94732.88;;;31.63;37.39
11329;BME280;5719;42.714;23.732;2022-07-23T08:44:10;94744.13;;;31.88;37.03
11329;BME280;5719;42.714;23.732;2022-07-23T08:46:38;94738.78;;;31.88;36.89
11329;BME280;5719;42.714;23.732;2022-07-23T08:49:08;94732.88;;;31.86;37.77
11329;BME280;5719;42.714;23.732;2022-07-23T08:51:35;94738.19;;;31.98;37.43
11329;BME280;5719;42.714;23.732;2022-07-23T08:54:02;94744.13;;;32.12;37.09
11329;BME280;5719;42.714;23.732;2022-07-23T08:56:29;94742.59;;;32.04;37.05
11329;BME280;5719;42.714;23.732;2022-07-23T08:58:57;94724.00;;;31.97;36.97
11329;BME280;5719;42.714;23.732;2022-07-23T09:01:24;94735.63;;;32.03;36.83
11329;BME280;5719;42.714;23.732;2022-07-23T09:03:51;94730.09;;;32.33;36.73
11329;BME280;5719;42.714;23.732;2022-07-23T09:06:22;94736.09;;;32.51;35.71
11329;BME280;5719;42.714;23.732;2022-07-23T09:08:48;94732.09;;;32.66;36.07
11329;BME280;5719;42.714;23.732;2022-07-23T09:11:16;94725.16;;;32.81;35.68
11329;BME280;5719;42.714;23.732;2022-07-23T09:13:47;94729.47;;;32.99;35.11
11329;BME280;5719;42.714;23.732;2022-07-23T09:16:15;94725.53;;;32.73;34.84
11329;BME280;5719;42.714;23.732;2022-07-23T09:18:44;94722.47;;;32.81;35.24
11329;BME280;5719;42.714;23.732;2022-07-23T09:21:14;94717.78;;;32.88;35.12
11329;BME280;5719;42.714;23.732;2022-07-23T09:23:44;94719.28;;;33.13;36.37
11329;BME280;5719;42.714;23.732;2022-07-23T09:26:33;94712.72;;;33.37;34.45
11329;BME280;5719;42.714;23.732;2022-07-23T09:29:08;94707.53;;;33.52;34.14
11329;BME280;5719;42.714;23.732;2022-07-23T09:31:50;94702.94;;;33.64;33.23
11329;BME280;5719;42.714;23.732;2022-07-23T09:34:20;94708.28;;;33.64;32.92
11329;BME280;5719;42.714;23.732;2022-07-23T09:36:48;94712.06;;;33.85;32.37
11329;BME280;5719;42.714;23.732;2022-07-23T09:39:26;94702.78;;;33.92;30.21
11329;BME280;5719;42.714;23.732;2022-07-23T09:41:53;94711.59;;;33.88;31.88
11329;BME280;5719;42.714;23.732;2022-07-23T09:44:21;94710.41;;;34.00;31.58
11329;BME280;5719;42.714;23.732;2022-07-23T09:46:49;94703.50;;;34.26;32.14
11329;BME280;5719;42.714;23.732;2022-07-23T09:49:19;94694.69;;;34.31;31.78
11329;BME280;5719;42.714;23.732;2022-07-23T09:55:10;94693.78;;;34.47;28.80
11329;BME280;5719;42.714;23.732;2022-07-23T09:57:37;94688.63;;;34.40;28.84
11329;BME280;5719;42.714;23.732;2022-07-23T10:00:08;94690.91;;;34.54;28.61
11329;BME280;5719;42.714;23.732;2022-07-23T10:02:37;94688.44;;;34.74;27.71
11329;BME280;5719;42.714;23.732;2022-07-23T10:05:05;94687.31;;;34.97;28.19
11329;BME280;5719;42.714;23.732;2022-07-23T10:07:34;94676.06;;;34.73;28.04
11329;BME280;5719;42.714;23.732;2022-07-23T10:10:04;94677.28;;;34.60;28.63
11329;BME280;5719;42.714;23.732;2022-07-23T10:12:33;94676.88;;;34.73;28.49
11329;BME280;5719;42.714;23.732;2022-07-23T10:15:12;94677.66;;;34.69;27.08
11329;BME280;5719;42.714;23.732;2022-07-23T10:17:39;94674.25;;;34.78;27.01
11329;BME280;5719;42.714;23.732;2022-07-23T10:20:06;94672.59;;;35.04;27.66
11329;BME280;5719;42.714;23.732;2022-07-23T10:26:11;94665.34;;;35.36;26.92
11329;BME280;5719;42.714;23.732;2022-07-23T10:29:01;94670.44;;;35.38;26.68
11329;BME280;5719;42.714;23.732;2022-07-23T10:38:21;94652.78;;;35.99;25.96
11329;BME280;5719;42.714;23.732;2022-07-23T10:40:55;94656.94;;;36.22;25.47
11329;BME280;5719;42.714;23.732;2022-07-23T10:43:23;94657.19;;;36.25;24.75
11329;BME280;5719;42.714;23.732;2022-07-23T10:49:38;94652.50;;;36.68;25.28
11329;BME280;5719;42.714;23.732;2022-07-23T10:52:25;94641.09;;;36.41;24.62
11329;BME280;5719;42.714;23.732;2022-07-23T11:52:45;94576.03;;;37.84;22.97
11329;BME280;5719;42.714;23.732;2022-07-23T11:55:12;94582.66;;;37.37;23.05
11329;BME280;5719;42.714;23.732;2022-07-23T11:57:42;94586.16;;;37.32;23.63
11329;BME280;5719;42.714;23.732;2022-07-23T12:00:12;94588.59;;;36.99;23.76
11329;BME280;5719;42.714;23.732;2022-07-23T12:02:41;94582.69;;;36.76;24.30
11329;BME280;5719;42.714;23.732;2022-07-23T12:05:12;94585.38;;;36.81;24.44
11329;BME280;5719;42.714;23.732;2022-07-23T12:07:40;94588.06;;;36.66;23.66
11329;BME280;5719;42.714;23.732;2022-07-23T12:10:13;94586.94;;;36.47;24.22
11329;BME280;5719;42.714;23.732;2022-07-23T12:12:42;94581.03;;;36.55;23.67
11329;BME280;5719;42.714;23.732;2022-07-23T12:18:30;94580.00;;;36.76;24.98
11329;BME280;5719;42.714;23.732;2022-07-23T12:21:04;94582.16;;;36.69;25.25
11329;BME280;5719;42.714;23.732;2022-07-23T12:23:32;94574.56;;;36.41;25.39
11329;BME280;5719;42.714;23.732;2022-07-23T12:26:02;94568.09;;;36.32;24.89
11329;BME280;5719;42.714;23.732;2022-07-23T12:28:31;94570.78;;;36.17;24.26
11329;BME280;5719;42.714;23.732;2022-07-23T12:30:58;94575.00;;;36.03;24.29
11329;BME280;5719;42.714;23.732;2022-07-23T12:33:27;94577.16;;;36.06;25.80
11329;BME280;5719;42.714;23.732;2022-07-23T12:35:56;94564.81;;;36.15;26.12
11329;BME280;5719;42.714;23.732;2022-07-23T12:38:25;94570.75;;;36.12;25.69
11329;BME280;5719;42.714;23.732;2022-07-23T12:40:53;94569.94;;;36.11;27.47
11329;BME280;5719;42.714;23.732;2022-07-23T12:43:23;94565.34;;;36.12;27.95
11329;BME280;5719;42.714;23.732;2022-07-23T12:45:52;94569.69;;;36.13;27.76
11329;BME280;5719;42.714;23.732;2022-07-23T12:48:24;94568.53;;;36.04;28.25
11329;BME280;5719;42.714;23.732;2022-07-23T12:50:53;94565.34;;;36.12;28.96
11329;BME280;5719;42.714;23.732;2022-07-23T12:53:22;94562.09;;;36.05;27.69
11329;BME280;5719;42.714;23.732;2022-07-23T12:55:50;94563.69;;;36.01;27.24
11329;BME280;5719;42.714;23.732;2022-07-23T12:58:19;94567.19;;;36.01;26.91
11329;BME280;5719;42.714;23.732;2022-07-23T13:00:59;94564.06;;;36.24;26.69
11329;BME280;5719;42.714;23.732;2022-07-23T13:06:50;94565.47;;;36.57;27.23
11329;BME280;5719;42.714;23.732;2022-07-23T13:09:20;94561.34;;;36.29;28.50
11329;BME280;5719;42.714;23.732;2022-07-23T13:11:48;94558.94;;;35.56;28.57
11329;BME280;5719;42.714;23.732;2022-07-23T13:14:16;94553.00;;;35.54;28.11
11329;BME280;5719;42.714;23.732;2022-07-23T13:16:45;94537.81;;;35.22;28.05
11329;BME280;5719;42.714;23.732;2022-07-23T13:19:13;94551.78;;;35.19;29.04
11329;BME280;5719;42.714;23.732;2022-07-23T13:21:40;94545.56;;;35.14;28.43
11329;BME280;5719;42.714;23.732;2022-07-23T13:24:08;94542.72;;;34.93;29.80
11329;BME280;5719;42.714;23.732;2022-07-23T13:26:36;94545.81;;;35.12;29.50
11329;BME280;5719;42.714;23.732;2022-07-23T13:29:04;94539.16;;;35.25;29.05
11329;BME280;5719;42.714;23.732;2022-07-23T13:31:31;94538.88;;;35.21;27.89
11329;BME280;5719;42.714;23.732;2022-07-23T13:34:00;94545.47;;;35.09;29.70
11329;BME280;5719;42.714;23.732;2022-07-23T13:36:27;94549.16;;;34.92;30.60
11329;BME280;5719;42.714;23.732;2022-07-23T13:38:54;94547.28;;;34.93;30.80
11329;BME280;5719;42.714;23.732;2022-07-23T13:41:21;94547.63;;;35.07;30.64
11329;BME280;5719;42.714;23.732;2022-07-23T13:43:49;94541.53;;;35.16;29.69
11329;BME280;5719;42.714;23.732;2022-07-23T13:46:16;94537.53;;;35.24;28.06
11329;BME280;5719;42.714;23.732;2022-07-23T13:48:43;94545.97;;;35.42;29.47
11329;BME280;5719;42.714;23.732;2022-07-23T13:51:11;94542.50;;;35.52;30.07
11329;BME280;5719;42.714;23.732;2022-07-23T13:53:39;94546.88;;;35.63;29.78
11329;BME280;5719;42.714;23.732;2022-07-23T13:56:06;94545.78;;;35.59;30.18
11329;BME280;5719;42.714;23.732;2022-07-23T13:58:34;94548.78;;;35.68;27.93
11329;BME280;5719;42.714;23.732;2022-07-23T14:01:01;94546.09;;;35.63;28.58
11329;BME280;5719;42.714;23.732;2022-07-23T14:03:28;94556.06;;;35.72;28.40
11329;BME280;5719;42.714;23.732;2022-07-23T14:05:55;94555.28;;;35.82;28.10
11329;BME280;5719;42.714;23.732;2022-07-23T14:08:24;94560.38;;;35.78;27.75
11329;BME280;5719;42.714;23.732;2022-07-23T14:10:51;94549.94;;;35.30;28.47
11329;BME280;5719;42.714;23.732;2022-07-23T14:13:18;94541.16;;;35.03;28.15
11329;BME280;5719;42.714;23.732;2022-07-23T14:15:47;94542.72;;;34.93;28.29
11329;BME280;5719;42.714;23.732;2022-07-23T14:18:16;94550.19;;;34.55;28.08
11329;BME280;5719;42.714;23.732;2022-07-23T14:20:43;94539.72;;;34.58;27.88
11329;BME280;5719;42.714;23.732;2022-07-23T14:23:11;94544.00;;;34.54;28.16
11329;BME280;5719;42.714;23.732;2022-07-23T14:25:39;94542.78;;;34.35;28.30